Time;durP1;ratioP1;P1;durP2;ratioP2;P2;SDS_P1;SDS_P2;PMS_P1;PMS_P2;Temp;Humidity;BMP_temperature;BMP_pressure;BME280_temperature;BME280_humidity;BME280_pressure;Samples;Min_cycle;Max_cycle;Signal;HPM_P1;HPM_P2
2022/10/31 00:00:39;;;;;;;;;;;;;;;;;;4983389;28;19917;-59
2022/10/31 00:03:07;;;;;;;;;;;;;;;;;;4966632;28;19969;-59
2022/10/31 00:05:32;;;;;;;;;;;;;;;;;;4981824;28;19922;-58
2022/10/31 00:08:00;;;;;;;;;;;;;;;;;;4974424;28;19930;-59
2022/10/31 00:10:27;;;;;;;;;;;;;;;;;;4962456;28;20407;-59
2022/10/31 00:12:56;;;;;;;;;;;;;;;;;;4985666;28;19949;-58
2022/10/31 00:15:21;;;;;;;;;;;;;;;;;;4981738;28;20331;-58
2022/10/31 00:17:49;;;;;;;;;;;;;;;;;;4967070;28;19929;-58
2022/10/31 00:20:14;;;;;;;;;;;;;;;;;;4986185;28;20564;-58
2022/10/31 00:22:44;;;;;;;;;;;;;;;;;;4986263;28;20026;-59
2022/10/31 00:25:09;;;;;;;;;;;;;;;;;;4985660;28;19925;-61
2022/10/31 00:27:35;;;;;;;;;;;;;;;;;;4984618;28;20235;-59
2022/10/31 00:30:02;;;;;;;;;;;;;;;;;;4965103;28;19931;-58
2022/10/31 00:32:33;;;;;;;;;;;;;;;;;;4962957;28;19922;-57
2022/10/31 00:35:01;;;;;;;;;;;;;;;;;;4964154;28;19921;-58
2022/10/31 00:37:26;;;;;;;;;;;;;;;;;;4976851;28;19921;-58
2022/10/31 00:39:51;;;;;;;;;;;;;;;;;;4962886;28;19928;-58
2022/10/31 00:42:19;;;;;;;;;;;;;;;;;;4983142;28;19983;-58
2022/10/31 00:44:45;;;;;;;;;;;;;;;;;;4984067;28;20348;-59
2022/10/31 00:47:10;;;;;;;;;;;;;;;;;;4964340;28;19926;-58
2022/10/31 00:49:35;;;;;;;;;;;;;;;;;;4981110;28;19964;-58
2022/10/31 00:52:01;;;;;;;;;;;;;;;;;;4958407;28;19925;-57
2022/10/31 00:54:26;;;;;;;;;;;;;;;;;;4973080;28;20766;-58
2022/10/31 00:56:54;;;;;;;;;;;;;;;;;;4983498;28;19929;-58
2022/10/31 00:59:22;;;;;;;;;;;;;;;;;;4983100;28;19968;-58
2022/10/31 01:01:47;;;;;;;;;;;;;;;;;;4948757;28;20017;-59
2022/10/31 01:04:12;;;;;;;;;;;;;;;;;;4981701;28;19995;-59
2022/10/31 01:06:40;;;;;;;;;;;;;;;;;;4961499;28;20477;-60
2022/10/31 01:09:05;;;;;;;;;;;;;;;;;;4957844;28;19939;-58
2022/10/31 01:11:30;;;;;;;;;;;;;;;;;;4983923;28;20123;-58
2022/10/31 01:13:56;;;;;;;;;;;;;;;;;;4961811;28;20356;-57
2022/10/31 01:16:23;;;;;;;;;;;;;;;;;;4982563;28;19921;-58
2022/10/31 01:18:54;;;;;;;;;;;;;;;;;;4975270;28;20047;-59
2022/10/31 01:21:21;;;;;;;;;;;;;;;;;;4980379;28;19960;-57
2022/10/31 01:23:49;;;;;;;;;;;;;;;;;;4954650;28;20048;-58
2022/10/31 01:26:14;;;;;;;;;;;;;;;;;;4960871;28;20612;-58
2022/10/31 01:28:43;;;;;;;;;;;;;;;;;;4964942;28;19930;-58
2022/10/31 01:31:08;;;;;;;;;;;;;;;;;;4819543;22;10698504;-59
2022/10/31 01:33:36;;;;;;;;;;;;;;;;;;4973386;28;20271;-58
2022/10/31 01:36:01;;;;;;;;;;;;;;;;;;4975668;28;20256;-59
2022/10/31 01:38:31;;;;;;;;;;;;;;;;;;4994653;28;20016;-59
2022/10/31 01:40:58;;;;;;;;;;;;;;;;;;4996642;28;19964;-60
2022/10/31 01:43:24;;;;;;;;;;;;;;;;;;4980371;28;19921;-58
2022/10/31 01:45:51;;;;;;;;;;;;;;;;;;4992955;28;20394;-59
2022/10/31 01:48:16;;;;;;;;;;;;;;;;;;4997701;28;19921;-59
2022/10/31 01:50:44;;;;;;;;;;;;;;;;;;4997687;28;19930;-59
2022/10/31 01:53:12;;;;;;;;;;;;;;;;;;4992534;28;19947;-59
2022/10/31 01:55:37;;;;;;;;;;;;;;;;;;4997936;28;19953;-59
2022/10/31 01:58:02;;;;;;;;;;;;;;;;;;4998825;28;20672;-59
2022/10/31 02:00:28;;;;;;;;;;;;;;;;;;4993433;28;19945;-57
2022/10/31 02:02:55;;;;;;;;;;;;;;;;;;4996665;28;19925;-59
2022/10/31 02:05:20;;;;;;;;;;;;;;;;;;4999292;28;19959;-57
2022/10/31 02:07:48;;;;;;;;;;;;;;;;;;5003760;28;19925;-61
2022/10/31 02:10:16;;;;;;;;;;;;;;;;;;5000852;28;20030;-57
2022/10/31 02:12:41;;;;;;;;;;;;;;;;;;4999390;28;20011;-57
2022/10/31 02:15:07;;;;;;;;;;;;;;;;;;5001512;28;19929;-59
2022/10/31 02:17:32;;;;;;;;;;;;;;;;;;4982295;28;19927;-57
2022/10/31 02:19:59;;;;;;;;;;;;;;;;;;5001019;28;19922;-58
2022/10/31 02:22:27;;;;;;;;;;;;;;;;;;4997538;28;20445;-57
2022/10/31 02:24:55;;;;;;;;;;;;;;;;;;5000647;28;20300;-57
2022/10/31 02:27:21;;;;;;;;;;;;;;;;;;4986449;28;20388;-57
2022/10/31 02:33:02;;;;;;;;;;;;;;;;;;5003704;28;19935;-57
2022/10/31 02:35:28;;;;;;;;;;;;;;;;;;4981776;28;19921;-57
2022/10/31 02:37:53;;;;;;;;;;;;;;;;;;4999739;28;19924;-58
2022/10/31 02:40:20;;;;;;;;;;;;;;;;;;4981692;28;20233;-60
2022/10/31 02:42:46;;;;;;;;;;;;;;;;;;5001295;28;19928;-57
2022/10/31 02:45:14;;;;;;;;;;;;;;;;;;4993738;28;22049;-58
2022/10/31 02:47:39;;;;;;;;;;;;;;;;;;5002398;28;19932;-57
2022/10/31 02:50:05;;;;;;;;;;;;;;;;;;4983795;28;19921;-57
2022/10/31 02:52:30;;;;;;;;;;;;;;;;;;4985487;28;20002;-57
2022/10/31 02:54:55;;;;;;;;;;;;;;;;;;4983958;28;19956;-56
2022/10/31 02:57:21;;;;;;;;;;;;;;;;;;5000046;28;19917;-57
2022/10/31 02:59:47;;;;;;;;;;;;;;;;;;4996655;28;20140;-57
2022/10/31 03:02:14;;;;;;;;;;;;;;;;;;4976162;28;19917;-57
2022/10/31 03:04:40;;;;;;;;;;;;;;;;;;4997912;28;19921;-58
2022/10/31 03:07:08;;;;;;;;;;;;;;;;;;4982475;28;19987;-58
2022/10/31 03:09:33;;;;;;;;;;;;;;;;;;4984629;28;20522;-58
2022/10/31 03:12:01;;;;;;;;;;;;;;;;;;4999813;28;20526;-58
2022/10/31 03:14:26;;;;;;;;;;;;;;;;;;4966702;28;19999;-58
2022/10/31 03:16:51;;;;;;;;;;;;;;;;;;4983466;28;20133;-56
2022/10/31 03:19:17;;;;;;;;;;;;;;;;;;4996972;28;20102;-57
2022/10/31 03:21:45;;;;;;;;;;;;;;;;;;4999144;28;19925;-57
2022/10/31 03:24:12;;;;;;;;;;;;;;;;;;4981118;28;19921;-58
2022/10/31 03:26:40;;;;;;;;;;;;;;;;;;5001258;28;20683;-56
2022/10/31 03:29:07;;;;;;;;;;;;;;;;;;4979793;28;19925;-58
2022/10/31 03:31:37;;;;;;;;;;;;;;;;;;4982067;28;19928;-57
2022/10/31 03:34:03;;;;;;;;;;;;;;;;;;4997693;28;19929;-57
2022/10/31 03:36:28;;;;;;;;;;;;;;;;;;4980917;28;19953;-58
2022/10/31 03:38:59;;;;;;;;;;;;;;;;;;4982165;28;20426;-58
2022/10/31 03:41:24;;;;;;;;;;;;;;;;;;4995389;28;19949;-57
2022/10/31 03:43:49;;;;;;;;;;;;;;;;;;5000244;28;20108;-57
2022/10/31 03:46:15;;;;;;;;;;;;;;;;;;4982257;28;19988;-55
2022/10/31 03:48:42;;;;;;;;;;;;;;;;;;5001539;28;19948;-56
2022/10/31 03:51:10;;;;;;;;;;;;;;;;;;5000996;28;21916;-55
2022/10/31 03:53:38;;;;;;;;;;;;;;;;;;4992945;28;19929;-57
2022/10/31 03:59:23;;;;;;;;;;;;;;;;;;5001067;28;19932;-56
2022/10/31 04:01:51;;;;;;;;;;;;;;;;;;4995262;28;19929;-56
2022/10/31 04:04:16;;;;;;;;;;;;;;;;;;4981531;28;19925;-57
2022/10/31 04:06:41;;;;;;;;;;;;;;;;;;4999482;28;20415;-57
2022/10/31 04:09:07;;;;;;;;;;;;;;;;;;4997339;28;19925;-56
2022/10/31 04:11:33;;;;;;;;;;;;;;;;;;4999604;28;20008;-55
2022/10/31 04:14:03;;;;;;;;;;;;;;;;;;4980706;28;19921;-55
2022/10/31 04:16:28;;;;;;;;;;;;;;;;;;4981943;28;19917;-57
2022/10/31 04:18:56;;;;;;;;;;;;;;;;;;4977978;28;20463;-57
2022/10/31 04:21:22;;;;;;;;;;;;;;;;;;4998807;28;20519;-55
2022/10/31 04:23:50;;;;;;;;;;;;;;;;;;4977291;28;19921;-58
2022/10/31 04:26:15;;;;;;;;;;;;;;;;;;4997008;28;19928;-57
2022/10/31 04:28:42;;;;;;;;;;;;;;;;;;4967137;28;19925;-56
2022/10/31 04:31:10;;;;;;;;;;;;;;;;;;4997431;28;20634;-58
2022/10/31 04:33:35;;;;;;;;;;;;;;;;;;4997076;28;19957;-57
2022/10/31 04:36:00;;;;;;;;;;;;;;;;;;4978176;28;20175;-56
2022/10/31 04:38:25;;;;;;;;;;;;;;;;;;4979880;28;19925;-57
2022/10/31 04:40:53;;;;;;;;;;;;;;;;;;4998128;28;19925;-58
2022/10/31 04:43:21;;;;;;;;;;;;;;;;;;4989466;28;20272;-57
2022/10/31 04:49:05;;;;;;;;;;;;;;;;;;4997738;28;20015;-56
2022/10/31 04:51:31;;;;;;;;;;;;;;;;;;4997844;28;20385;-58
2022/10/31 04:53:56;;;;;;;;;;;;;;;;;;4994188;28;19932;-58
2022/10/31 04:56:21;;;;;;;;;;;;;;;;;;4996614;28;20019;-56
2022/10/31 04:58:49;;;;;;;;;;;;;;;;;;4976216;28;19918;-56
2022/10/31 05:01:14;;;;;;;;;;;;;;;;;;4998798;28;19924;-59
2022/10/31 05:03:39;;;;;;;;;;;;;;;;;;4995295;28;19921;-57
2022/10/31 05:06:07;;;;;;;;;;;;;;;;;;4973319;28;19936;-56
2022/10/31 05:08:35;;;;;;;;;;;;;;;;;;4979305;28;19925;-56
2022/10/31 05:11:02;;;;;;;;;;;;;;;;;;4992602;28;19986;-56
2022/10/31 05:13:30;;;;;;;;;;;;;;;;;;5000920;28;21888;-58
2022/10/31 05:15:58;;;;;;;;;;;;;;;;;;5001302;28;20094;-57
2022/10/31 05:18:26;;;;;;;;;;;;;;;;;;5000858;28;20055;-56
2022/10/31 05:20:51;;;;;;;;;;;;;;;;;;4999860;28;19925;-55
2022/10/31 05:23:19;;;;;;;;;;;;;;;;;;4997939;28;19931;-56
2022/10/31 05:25:44;;;;;;;;;;;;;;;;;;4997221;28;20507;-55
2022/10/31 05:28:09;;;;;;;;;;;;;;;;;;4980550;28;19925;-56
2022/10/31 05:30:39;;;;;;;;;;;;;;;;;;5001135;28;20031;-55
2022/10/31 05:33:05;;;;;;;;;;;;;;;;;;4997695;28;19933;-55
2022/10/31 05:35:32;;;;;;;;;;;;;;;;;;4999641;28;19921;-56
2022/10/31 05:38:00;;;;;;;;;;;;;;;;;;4973808;28;20497;-55
2022/10/31 05:40:25;;;;;;;;;;;;;;;;;;4997183;28;20359;-57
2022/10/31 05:42:53;;;;;;;;;;;;;;;;;;4987737;28;19925;-56
2022/10/31 05:45:18;;;;;;;;;;;;;;;;;;4991954;28;20091;-56
2022/10/31 05:47:49;;;;;;;;;;;;;;;;;;4993872;28;19924;-56
2022/10/31 05:50:16;;;;;;;;;;;;;;;;;;4995073;28;19955;-56
2022/10/31 05:52:44;;;;;;;;;;;;;;;;;;4977129;28;20369;-56
2022/10/31 05:55:09;;;;;;;;;;;;;;;;;;4995264;28;20012;-56
2022/10/31 05:57:34;;;;;;;;;;;;;;;;;;4972998;28;20223;-57
2022/10/31 06:00:00;;;;;;;;;;;;;;;;;;4978168;28;20264;-56
2022/10/31 06:05:47;;;;;;;;;;;;;;;;;;4992664;28;20063;-55
2022/10/31 06:08:12;;;;;;;;;;;;;;;;;;4988061;28;20635;-56
2022/10/31 06:10:40;;;;;;;;;;;;;;;;;;4997416;28;19968;-56
2022/10/31 06:13:06;;;;;;;;;;;;;;;;;;4994532;28;19921;-56
2022/10/31 06:15:31;;;;;;;;;;;;;;;;;;4977948;28;19935;-55
2022/10/31 06:17:57;;;;;;;;;;;;;;;;;;4999011;28;19928;-56
2022/10/31 06:20:22;;;;;;;;;;;;;;;;;;4980406;28;19921;-56
2022/10/31 06:22:50;;;;;;;;;;;;;;;;;;4976097;28;19925;-56
2022/10/31 06:25:15;;;;;;;;;;;;;;;;;;4998639;28;20684;-57
2022/10/31 06:27:45;;;;;;;;;;;;;;;;;;4990316;28;20030;-56
2022/10/31 06:30:13;;;;;;;;;;;;;;;;;;4997081;28;19939;-57
2022/10/31 06:32:38;;;;;;;;;;;;;;;;;;4998804;28;20919;-56
2022/10/31 06:35:06;;;;;;;;;;;;;;;;;;4998361;28;19917;-55
2022/10/31 06:37:34;;;;;;;;;;;;;;;;;;4995049;28;19921;-56
2022/10/31 06:39:59;;;;;;;;;;;;;;;;;;4980842;28;19925;-55
2022/10/31 06:42:27;;;;;;;;;;;;;;;;;;4997556;28;19976;-55
2022/10/31 06:44:52;;;;;;;;;;;;;;;;;;4994616;28;20129;-57
2022/10/31 06:47:20;;;;;;;;;;;;;;;;;;4980786;28;19921;-56
2022/10/31 06:49:45;;;;;;;;;;;;;;;;;;4996763;28;19917;-56
2022/10/31 06:52:13;;;;;;;;;;;;;;;;;;4986337;28;20059;-55
2022/10/31 06:54:38;;;;;;;;;;;;;;;;;;5001473;28;19992;-58
2022/10/31 06:57:04;;;;;;;;;;;;;;;;;;5002000;28;19961;-53
2022/10/31 06:59:29;;;;;;;;;;;;;;;;;;4985030;28;19922;-54
2022/10/31 07:01:55;;;;;;;;;;;;;;;;;;4999272;28;20534;-54
2022/10/31 07:04:25;;;;;;;;;;;;;;;;;;5002477;28;20409;-56
2022/10/31 07:06:53;;;;;;;;;;;;;;;;;;5002599;28;19925;-55
2022/10/31 07:09:18;;;;;;;;;;;;;;;;;;5000732;28;19925;-56
2022/10/31 07:11:43;;;;;;;;;;;;;;;;;;4984177;28;20456;-56
2022/10/31 07:17:27;;;;;;;;;;;;;;;;;;5003715;28;20006;-56
2022/10/31 07:19:55;;;;;;;;;;;;;;;;;;5000944;28;20045;-54
2022/10/31 07:22:20;;;;;;;;;;;;;;;;;;5000985;28;19928;-56
2022/10/31 07:24:48;;;;;;;;;;;;;;;;;;5001901;28;19917;-55
2022/10/31 07:27:13;;;;;;;;;;;;;;;;;;5001357;28;19951;-56
2022/10/31 07:29:39;;;;;;;;;;;;;;;;;;4993555;28;20388;-57
2022/10/31 07:32:04;;;;;;;;;;;;;;;;;;5000022;28;20654;-57
2022/10/31 07:34:30;;;;;;;;;;;;;;;;;;5001883;28;19927;-56
2022/10/31 07:36:55;;;;;;;;;;;;;;;;;;4971036;28;19921;-56
2022/10/31 07:39:20;;;;;;;;;;;;;;;;;;4998571;28;19921;-56
2022/10/31 07:41:46;;;;;;;;;;;;;;;;;;4983787;28;20018;-55
2022/10/31 07:44:11;;;;;;;;;;;;;;;;;;4984479;28;21493;-55
2022/10/31 07:46:36;;;;;;;;;;;;;;;;;;4981940;28;20377;-55
2022/10/31 07:49:02;;;;;;;;;;;;;;;;;;4984374;28;20593;-57
2022/10/31 07:51:28;;;;;;;;;;;;;;;;;;4982273;28;20292;-54
2022/10/31 07:53:57;;;;;;;;;;;;;;;;;;5001869;28;19963;-55
2022/10/31 07:56:23;;;;;;;;;;;;;;;;;;5000625;28;19925;-55
2022/10/31 07:58:48;;;;;;;;;;;;;;;;;;4984644;28;19921;-55
2022/10/31 08:01:13;;;;;;;;;;;;;;;;;;4982066;28;19917;-57
2022/10/31 08:03:39;;;;;;;;;;;;;;;;;;4997491;28;20152;-57
2022/10/31 08:06:09;;;;;;;;;;;;;;;;;;4968794;28;20075;-55
2022/10/31 08:08:34;;;;;;;;;;;;;;;;;;4999681;28;20025;-55
2022/10/31 08:11:02;;;;;;;;;;;;;;;;;;5000814;28;19979;-55
2022/10/31 08:13:28;;;;;;;;;;;;;;;;;;4979656;28;19931;-55
2022/10/31 08:15:56;;;;;;;;;;;;;;;;;;4993558;28;19921;-55
2022/10/31 08:18:23;;;;;;;;;;;;;;;;;;4993475;28;20474;-55
2022/10/31 08:20:48;;;;;;;;;;;;;;;;;;4990438;28;19921;-56
2022/10/31 08:23:16;;;;;;;;;;;;;;;;;;4999408;28;19922;-56
2022/10/31 08:25:42;;;;;;;;;;;;;;;;;;4964154;28;20223;-56
2022/10/31 08:28:08;;;;;;;;;;;;;;;;;;4992064;28;20225;-56
2022/10/31 08:30:33;;;;;;;;;;;;;;;;;;4968978;28;20300;-56
2022/10/31 08:33:01;;;;;;;;;;;;;;;;;;4996425;28;20083;-56
2022/10/31 08:35:26;;;;;;;;;;;;;;;;;;4981620;28;19921;-56
2022/10/31 08:37:56;;;;;;;;;;;;;;;;;;5000092;28;19970;-57
2022/10/31 08:40:22;;;;;;;;;;;;;;;;;;4993603;28;19921;-56
2022/10/31 08:42:47;;;;;;;;;;;;;;;;;;4984946;28;20312;-57
2022/10/31 08:45:12;;;;;;;;;;;;;;;;;;4999861;28;20681;-58
2022/10/31 08:47:38;;;;;;;;;;;;;;;;;;4995949;28;19925;-57
2022/10/31 08:50:06;;;;;;;;;;;;;;;;;;5002536;28;19949;-56
2022/10/31 08:52:31;;;;;;;;;;;;;;;;;;4998904;28;20059;-57
2022/10/31 08:54:57;;;;;;;;;;;;;;;;;;4995112;28;19928;-58
2022/10/31 08:57:22;;;;;;;;;;;;;;;;;;4981423;28;19921;-56
2022/10/31 08:59:47;;;;;;;;;;;;;;;;;;4983518;28;20359;-57
2022/10/31 09:02:12;;;;;;;;;;;;;;;;;;4977437;28;19921;-56
2022/10/31 09:04:38;;;;;;;;;;;;;;;;;;4979734;28;19921;-55
2022/10/31 09:07:06;;;;;;;;;;;;;;;;;;4975589;28;20028;-58
2022/10/31 09:09:31;;;;;;;;;;;;;;;;;;4984965;28;20380;-56
2022/10/31 09:15:18;;;;;;;;;;;;;;;;;;4993359;28;20355;-56
2022/10/31 09:17:43;;;;;;;;;;;;;;;;;;4981760;28;19917;-55
2022/10/31 09:20:09;;;;;;;;;;;;;;;;;;4997222;28;19940;-56
2022/10/31 09:22:44;;;;;;;;;;;;;;;;;;4997791;28;20333;-57
2022/10/31 09:25:09;;;;;;;;;;;;;;;;;;4998017;28;19961;-56
2022/10/31 09:27:36;;;;;;;;;;;;;;;;;;4980375;28;20553;-56
2022/10/31 09:30:02;;;;;;;;;;;;;;;;;;4983270;28;20153;-58
2022/10/31 09:32:33;;;;;;;;;;;;;;;;;;4992175;28;20534;-56
2022/10/31 09:34:58;;;;;;;;;;;;;;;;;;4981343;28;20371;-57
2022/10/31 09:37:26;;;;;;;;;;;;;;;;;;4999750;28;19941;-57
2022/10/31 09:39:51;;;;;;;;;;;;;;;;;;5001471;28;20040;-57
2022/10/31 09:42:17;;;;;;;;;;;;;;;;;;4980720;28;19951;-58
2022/10/31 09:44:42;;;;;;;;;;;;;;;;;;4981826;28;21623;-58
2022/10/31 09:47:07;;;;;;;;;;;;;;;;;;4998151;28;20373;-57
2022/10/31 09:49:35;;;;;;;;;;;;;;;;;;4999379;28;19925;-56
2022/10/31 09:52:05;;;;;;;;;;;;;;;;;;4991904;28;20277;-58
2022/10/31 09:54:30;;;;;;;;;;;;;;;;;;4997822;28;20493;-56
2022/10/31 09:56:56;;;;;;;;;;;;;;;;;;4957021;28;19980;-56
2022/10/31 09:59:21;;;;;;;;;;;;;;;;;;4981010;28;19921;-57
2022/10/31 10:01:48;;;;;;;;;;;;;;;;;;5000210;28;20039;-56
2022/10/31 10:04:16;;;;;;;;;;;;;;;;;;4992178;28;19927;-57
2022/10/31 10:06:41;;;;;;;;;;;;;;;;;;4983028;28;19944;-58
2022/10/31 10:09:07;;;;;;;;;;;;;;;;;;4981876;28;19929;-58
2022/10/31 10:11:37;;;;;;;;;;;;;;;;;;4982007;28;21652;-57
2022/10/31 10:14:07;;;;;;;;;;;;;;;;;;4996150;28;19921;-57
2022/10/31 10:16:35;;;;;;;;;;;;;;;;;;4996935;28;19960;-57
2022/10/31 10:19:00;;;;;;;;;;;;;;;;;;4982567;28;20431;-58
2022/10/31 10:21:30;;;;;;;;;;;;;;;;;;4997792;28;19953;-58
2022/10/31 10:23:56;;;;;;;;;;;;;;;;;;4994794;28;19956;-58
2022/10/31 10:26:23;;;;;;;;;;;;;;;;;;5001541;28;19922;-58
2022/10/31 10:28:51;;;;;;;;;;;;;;;;;;4978848;28;20541;-58
2022/10/31 10:31:16;;;;;;;;;;;;;;;;;;5000620;28;20116;-57
2022/10/31 10:33:42;;;;;;;;;;;;;;;;;;5001166;28;19925;-59
2022/10/31 10:36:12;;;;;;;;;;;;;;;;;;4984664;28;19936;-57
2022/10/31 10:38:37;;;;;;;;;;;;;;;;;;4986182;28;19917;-59
2022/10/31 10:41:05;;;;;;;;;;;;;;;;;;5002448;28;19975;-58
2022/10/31 10:43:30;;;;;;;;;;;;;;;;;;5003646;28;20414;-59
2022/10/31 10:48:40;;;;;;;;;;;;;;;;;;5000171;28;20350;-59
2022/10/31 10:51:05;;;;;;;;;;;;;;;;;;5004096;28;19921;-58
2022/10/31 10:53:36;;;;;;;;;;;;;;;;;;4999345;28;19944;-58
2022/10/31 10:56:02;;;;;;;;;;;;;;;;;;4992978;28;19918;-59
2022/10/31 10:58:27;;;;;;;;;;;;;;;;;;4999949;28;20367;-58
2022/10/31 11:00:52;;;;;;;;;;;;;;;;;;5000081;28;19961;-60
2022/10/31 11:03:20;;;;;;;;;;;;;;;;;;5002429;28;19921;-59
2022/10/31 11:05:45;;;;;;;;;;;;;;;;;;4985010;28;20018;-58
2022/10/31 11:08:11;;;;;;;;;;;;;;;;;;4998972;28;19960;-61
2022/10/31 11:10:37;;;;;;;;;;;;;;;;;;4985294;28;20440;-59
2022/10/31 11:13:02;;;;;;;;;;;;;;;;;;4984220;28;19971;-60
2022/10/31 11:15:30;;;;;;;;;;;;;;;;;;5001029;28;20015;-58
2022/10/31 11:17:56;;;;;;;;;;;;;;;;;;5000074;28;20087;-59
2022/10/31 11:20:22;;;;;;;;;;;;;;;;;;5002137;28;19925;-59
2022/10/31 11:22:47;;;;;;;;;;;;;;;;;;5001589;28;19972;-58
2022/10/31 11:25:13;;;;;;;;;;;;;;;;;;4981045;28;19943;-59
2022/10/31 11:27:38;;;;;;;;;;;;;;;;;;4999300;28;20323;-59
2022/10/31 11:30:08;;;;;;;;;;;;;;;;;;4997907;28;19935;-59
2022/10/31 11:32:34;;;;;;;;;;;;;;;;;;5001393;28;19947;-59
2022/10/31 11:35:01;;;;;;;;;;;;;;;;;;4997014;28;19921;-59
2022/10/31 11:37:29;;;;;;;;;;;;;;;;;;4999632;28;19927;-59
2022/10/31 11:39:54;;;;;;;;;;;;;;;;;;4978915;28;19925;-58
2022/10/31 11:42:24;;;;;;;;;;;;;;;;;;4978859;28;19917;-59
2022/10/31 11:44:50;;;;;;;;;;;;;;;;;;4997476;28;20183;-59
2022/10/31 11:47:15;;;;;;;;;;;;;;;;;;5003463;28;19917;-58
2022/10/31 11:49:43;;;;;;;;;;;;;;;;;;4982659;28;20494;-57
2022/10/31 11:52:09;;;;;;;;;;;;;;;;;;4985833;28;19928;-57
2022/10/31 11:54:43;;;;;;;;;;;;;;;;;;5001998;28;19917;-59
2022/10/31 11:57:09;;;;;;;;;;;;;;;;;;4998220;28;20405;-58
2022/10/31 13:58:49;;;;;;;;;;;;;;;;;;4998572;28;19980;-58
2022/10/31 14:01:15;;;;;;;;;;;;;;;;;;4983334;28;20015;-59
2022/10/31 14:03:43;;;;;;;;;;;;;;;;;;4983578;28;20027;-58
2022/10/31 14:06:08;;;;;;;;;;;;;;;;;;4991674;28;20062;-58
2022/10/31 14:08:36;;;;;;;;;;;;;;;;;;4994288;28;20003;-59
2022/10/31 14:11:01;;;;;;;;;;;;;;;;;;4985275;28;20540;-59
2022/10/31 14:13:26;;;;;;;;;;;;;;;;;;4999703;28;19927;-58
2022/10/31 14:15:52;;;;;;;;;;;;;;;;;;4984931;28;19925;-59
2022/10/31 14:18:17;;;;;;;;;;;;;;;;;;5001713;28;20348;-59
2022/10/31 14:20:42;;;;;;;;;;;;;;;;;;5002588;28;19921;-58
2022/10/31 14:23:08;;;;;;;;;;;;;;;;;;5002333;28;20292;-58
2022/10/31 14:25:38;;;;;;;;;;;;;;;;;;5000198;28;20000;-58
2022/10/31 14:28:07;;;;;;;;;;;;;;;;;;4998880;28;20063;-60
2022/10/31 14:30:32;;;;;;;;;;;;;;;;;;5002984;28;20311;-59
2022/10/31 14:33:02;;;;;;;;;;;;;;;;;;5003331;28;20240;-59
2022/10/31 14:35:33;;;;;;;;;;;;;;;;;;4968418;28;19921;-58
2022/10/31 14:37:58;;;;;;;;;;;;;;;;;;4998464;28;19921;-58
2022/10/31 14:40:23;;;;;;;;;;;;;;;;;;5004785;28;19957;-58
2022/10/31 14:42:49;;;;;;;;;;;;;;;;;;5000567;28;21604;-59
2022/10/31 14:45:14;;;;;;;;;;;;;;;;;;5000415;28;19960;-59
2022/10/31 14:47:39;;;;;;;;;;;;;;;;;;4985588;28;19972;-59
2022/10/31 14:50:07;;;;;;;;;;;;;;;;;;5001869;28;20044;-59
2022/10/31 14:52:32;;;;;;;;;;;;;;;;;;5003481;28;19944;-59
2022/10/31 14:55:01;;;;;;;;;;;;;;;;;;5001382;28;20542;-59
2022/10/31 14:57:27;;;;;;;;;;;;;;;;;;4984409;28;20475;-59
2022/10/31 14:59:56;;;;;;;;;;;;;;;;;;5002600;28;19921;-59
2022/10/31 15:02:23;;;;;;;;;;;;;;;;;;4999733;28;19987;-59
2022/10/31 15:04:49;;;;;;;;;;;;;;;;;;5002945;28;20011;-59
2022/10/31 15:07:15;;;;;;;;;;;;;;;;;;4981801;28;19971;-58
2022/10/31 15:09:43;;;;;;;;;;;;;;;;;;4991440;28;19925;-58
2022/10/31 15:12:11;;;;;;;;;;;;;;;;;;5000897;28;19917;-59
2022/10/31 15:14:36;;;;;;;;;;;;;;;;;;4974033;28;19928;-58
2022/10/31 15:17:04;;;;;;;;;;;;;;;;;;4998088;28;20003;-58
2022/10/31 15:19:29;;;;;;;;;;;;;;;;;;4977039;28;19931;-58
2022/10/31 15:21:55;;;;;;;;;;;;;;;;;;4997703;28;19959;-58
2022/10/31 15:24:21;;;;;;;;;;;;;;;;;;4998177;28;20015;-58
2022/10/31 15:26:46;;;;;;;;;;;;;;;;;;4993234;28;20324;-58
2022/10/31 15:29:14;;;;;;;;;;;;;;;;;;4992213;28;19921;-58
2022/10/31 15:31:42;;;;;;;;;;;;;;;;;;4991240;28;19932;-58
2022/10/31 15:34:07;;;;;;;;;;;;;;;;;;4968643;28;19921;-58
2022/10/31 15:36:33;;;;;;;;;;;;;;;;;;4981807;28;19921;-58
2022/10/31 15:38:58;;;;;;;;;;;;;;;;;;4999058;28;19923;-59
2022/10/31 15:41:26;;;;;;;;;;;;;;;;;;4978473;28;19931;-58
2022/10/31 15:43:51;;;;;;;;;;;;;;;;;;5000160;28;19921;-60
2022/10/31 15:46:16;;;;;;;;;;;;;;;;;;5000901;28;19924;-58
2022/10/31 15:48:44;;;;;;;;;;;;;;;;;;4999353;28;20438;-58
2022/10/31 15:51:09;;;;;;;;;;;;;;;;;;5002385;28;20434;-57
2022/10/31 15:53:34;;;;;;;;;;;;;;;;;;5001577;28;20436;-58
2022/10/31 15:56:02;;;;;;;;;;;;;;;;;;5001167;28;19947;-60
2022/10/31 15:58:30;;;;;;;;;;;;;;;;;;4965600;28;19917;-57
2022/10/31 16:00:55;;;;;;;;;;;;;;;;;;4976259;28;20057;-58
2022/10/31 16:03:20;;;;;;;;;;;;;;;;;;4991110;28;19921;-59
2022/10/31 16:05:46;;;;;;;;;;;;;;;;;;4997896;28;20002;-58
2022/10/31 16:08:11;;;;;;;;;;;;;;;;;;4995961;28;19925;-59
2022/10/31 16:10:39;;;;;;;;;;;;;;;;;;4992420;28;20023;-58
2022/10/31 16:13:04;;;;;;;;;;;;;;;;;;4997706;28;20232;-58
2022/10/31 16:15:30;;;;;;;;;;;;;;;;;;4997078;28;20403;-58
2022/10/31 16:17:58;;;;;;;;;;;;;;;;;;4980141;28;20285;-59
2022/10/31 16:20:31;;;;;;;;;;;;;;;;;;4991832;28;20291;-58
2022/10/31 16:23:00;;;;;;;;;;;;;;;;;;4997257;28;19921;-59
2022/10/31 16:25:27;;;;;;;;;;;;;;;;;;4995119;28;19921;-59
2022/10/31 16:27:52;;;;;;;;;;;;;;;;;;4997760;28;19925;-59
2022/10/31 16:30:20;;;;;;;;;;;;;;;;;;4994069;28;19967;-59
2022/10/31 16:32:46;;;;;;;;;;;;;;;;;;4996027;28;20302;-60
2022/10/31 16:35:14;;;;;;;;;;;;;;;;;;4979615;28;19921;-58
2022/10/31 16:37:40;;;;;;;;;;;;;;;;;;4994725;28;20294;-58
2022/10/31 16:40:06;;;;;;;;;;;;;;;;;;4978328;28;19925;-58
2022/10/31 16:42:31;;;;;;;;;;;;;;;;;;4997596;28;19948;-59
2022/10/31 16:44:59;;;;;;;;;;;;;;;;;;4992819;28;19925;-58
2022/10/31 16:47:24;;;;;;;;;;;;;;;;;;4995649;28;19928;-58
2022/10/31 16:49:49;;;;;;;;;;;;;;;;;;4996488;28;20678;-58
2022/10/31 16:52:20;;;;;;;;;;;;;;;;;;4978199;28;19917;-58
2022/10/31 16:54:45;;;;;;;;;;;;;;;;;;4995857;28;20497;-58
2022/10/31 16:57:12;;;;;;;;;;;;;;;;;;4991337;28;19921;-58
2022/10/31 16:59:40;;;;;;;;;;;;;;;;;;4979052;28;19921;-58
2022/10/31 17:02:10;;;;;;;;;;;;;;;;;;4978122;28;19932;-58
2022/10/31 17:04:35;;;;;;;;;;;;;;;;;;4979918;28;20485;-59
2022/10/31 17:07:00;;;;;;;;;;;;;;;;;;4992382;28;19988;-59
2022/10/31 17:09:31;;;;;;;;;;;;;;;;;;4992479;28;19925;-59
2022/10/31 17:11:58;;;;;;;;;;;;;;;;;;4975315;28;19921;-59
2022/10/31 17:14:26;;;;;;;;;;;;;;;;;;4998222;28;19921;-58
2022/10/31 17:16:53;;;;;;;;;;;;;;;;;;4998445;28;19975;-59
2022/10/31 17:19:19;;;;;;;;;;;;;;;;;;4975213;28;20024;-57
2022/10/31 17:21:48;;;;;;;;;;;;;;;;;;4992807;28;20021;-59
2022/10/31 17:24:13;;;;;;;;;;;;;;;;;;4980381;28;21279;-59
2022/10/31 17:26:38;;;;;;;;;;;;;;;;;;4980396;28;20400;-59
2022/10/31 17:29:03;;;;;;;;;;;;;;;;;;4979496;28;19971;-59
2022/10/31 17:31:29;;;;;;;;;;;;;;;;;;4992234;28;19999;-58
2022/10/31 17:33:57;;;;;;;;;;;;;;;;;;4976519;28;20400;-58
2022/10/31 17:36:24;;;;;;;;;;;;;;;;;;4976340;28;19987;-59
2022/10/31 17:38:50;;;;;;;;;;;;;;;;;;4999288;28;20133;-58
2022/10/31 17:41:15;;;;;;;;;;;;;;;;;;4997470;28;19927;-58
2022/10/31 17:43:41;;;;;;;;;;;;;;;;;;4994922;28;19927;-58
2022/10/31 17:46:06;;;;;;;;;;;;;;;;;;4979923;28;19955;-58
2022/10/31 17:48:31;;;;;;;;;;;;;;;;;;4978228;28;19929;-58
2022/10/31 17:50:56;;;;;;;;;;;;;;;;;;4977528;28;19918;-58
2022/10/31 17:53:24;;;;;;;;;;;;;;;;;;4997766;28;19917;-58
2022/10/31 17:55:52;;;;;;;;;;;;;;;;;;5000059;28;19995;-58
2022/10/31 17:58:17;;;;;;;;;;;;;;;;;;4994335;28;19952;-58
2022/10/31 18:00:43;;;;;;;;;;;;;;;;;;4997541;28;20737;-58
2022/10/31 18:03:10;;;;;;;;;;;;;;;;;;4993621;28;20373;-57
2022/10/31 18:05:38;;;;;;;;;;;;;;;;;;4979754;28;20450;-58
2022/10/31 18:08:04;;;;;;;;;;;;;;;;;;4979625;28;19979;-58
2022/10/31 18:10:29;;;;;;;;;;;;;;;;;;4998984;28;20055;-58
2022/10/31 18:12:55;;;;;;;;;;;;;;;;;;4996374;28;20531;-59
2022/10/31 18:15:20;;;;;;;;;;;;;;;;;;4986819;28;19921;-59
2022/10/31 18:17:46;;;;;;;;;;;;;;;;;;4981772;28;19921;-58
2022/10/31 18:20:11;;;;;;;;;;;;;;;;;;4993965;28;19956;-59
2022/10/31 18:22:40;;;;;;;;;;;;;;;;;;4979714;28;20429;-59
2022/10/31 18:25:05;;;;;;;;;;;;;;;;;;4976013;28;19925;-59
2022/10/31 18:27:30;;;;;;;;;;;;;;;;;;4995776;28;20774;-59
2022/10/31 18:29:55;;;;;;;;;;;;;;;;;;4972135;28;20043;-58
2022/10/31 18:32:21;;;;;;;;;;;;;;;;;;4995379;28;19932;-59
2022/10/31 18:34:49;;;;;;;;;;;;;;;;;;4995789;28;20100;-59
2022/10/31 18:37:14;;;;;;;;;;;;;;;;;;4997756;28;19918;-59
2022/10/31 18:39:44;;;;;;;;;;;;;;;;;;4992892;28;19921;-59
2022/10/31 18:42:21;;;;;;;;;;;;;;;;;;4985702;28;20002;-59
2022/10/31 18:44:47;;;;;;;;;;;;;;;;;;4989008;28;20023;-60
2022/10/31 18:47:12;;;;;;;;;;;;;;;;;;4985205;28;19921;-59
2022/10/31 18:49:37;;;;;;;;;;;;;;;;;;5001825;28;20281;-59
2022/10/31 18:52:05;;;;;;;;;;;;;;;;;;4997463;28;19925;-61
2022/10/31 18:54:33;;;;;;;;;;;;;;;;;;4964850;28;20371;-59
2022/10/31 18:56:58;;;;;;;;;;;;;;;;;;4994611;28;20136;-60
2022/10/31 18:59:23;;;;;;;;;;;;;;;;;;5003037;28;19998;-59
2022/10/31 19:01:51;;;;;;;;;;;;;;;;;;4978440;28;20378;-59